ADDS - METARS form results

Aviation Digital Data Service (ADDS)

Output produced by METARs form (0557 UTC 25 January 2020)
found at http://aviationweather.gov/metar/data/
 
METAR text: KPNT 250535Z AUTO 25007KT 240V310 1 1/2SM BR OVC003 01/01 A2984 RMK AO2 T00080006
Conditions at: KPNT (PONTIAC , IL, US) observed 0535 UTC 25 January 2020
Temperature: 0.8°C (33°F)
Dewpoint: 0.6°C (33°F) [RH = 99%]
Pressure (altimeter): 29.84 inches Hg (1010.6 mb)
Winds: from the WSW (250 degrees) at 8 MPH (7 knots; 3.6 m/s)
Visibility: 1.50 miles (2.41 km)
Ceiling: 300 feet AGL
Clouds: overcast cloud deck at 300 feet AGL
Weather: BR  (mist)

METAR text: KPNT 250515Z AUTO 24007KT 3/4SM BR OVC003 01/01 A2984 RMK AO2 T00080005
Conditions at: KPNT (PONTIAC , IL, US) observed 0515 UTC 25 January 2020
Temperature: 0.8°C (33°F)
Dewpoint: 0.5°C (33°F) [RH = 98%]
Pressure (altimeter): 29.84 inches Hg (1010.6 mb)
Winds: from the WSW (240 degrees) at 8 MPH (7 knots; 3.6 m/s)
Visibility: 0.75 miles (1.21 km)
Ceiling: 300 feet AGL
Clouds: overcast cloud deck at 300 feet AGL
Weather: BR  (mist)